Time,TemperatureF,DewpointF,PressureIn,WindDirection,WindDirectionDegrees,WindSpeedMPH,WindSpeedGustMPH,Humidity,HourlyPrecipIn,Conditions,Clouds,dailyrainin,SoftwareType,DateUTC
2014-09-18 00:01:00,74.3,72.5,26.85,SE,135,4.0,-999.0,94,-99.99,,,0.00,meteohub,2014-09-18 04:01:00,
2014-09-18 00:06:00,74.3,72.5,26.85,SE,135,4.0,-999.0,94,-99.99,,,0.00,meteohub,2014-09-18 04:06:00,
2014-09-18 00:11:00,74.3,72.9,26.85,SE,135,2.0,-999.0,95,-99.99,,,0.00,meteohub,2014-09-18 04:11:00,
2014-09-18 00:16:00,74.1,72.7,26.84,SE,135,2.0,-999.0,95,-99.99,,,0.00,meteohub,2014-09-18 04:16:00,
2014-09-18 00:21:00,73.9,72.5,26.85,SE,135,1.0,-999.0,95,-99.99,,,0.00,meteohub,2014-09-18 04:21:00,
2014-09-18 00:26:00,73.9,72.5,26.84,SE,135,2.0,-999.0,95,-99.99,,,0.00,meteohub,2014-09-18 04:26:00,
2014-09-18 00:31:00,73.9,72.5,26.84,SE,135,1.0,-999.0,95,-99.99,,,0.00,meteohub,2014-09-18 04:31:00,
2014-09-18 00:36:00,73.8,72.3,26.85,SE,135,2.0,-999.0,95,-99.99,,,0.00,meteohub,2014-09-18 04:36:00,
2014-09-18 00:41:00,73.8,72.3,26.84,SE,135,1.0,-999.0,95,-99.99,,,0.00,meteohub,2014-09-18 04:41:00,
2014-09-18 00:46:00,73.6,72.3,26.84,SE,135,1.0,-999.0,96,-99.99,,,0.00,meteohub,2014-09-18 04:46:00,
2014-09-18 00:51:00,73.4,72.1,26.84,SE,135,2.0,-999.0,96,-99.99,,,0.00,meteohub,2014-09-18 04:51:00,
2014-09-18 00:56:00,73.4,72.1,26.84,SE,135,2.0,-999.0,96,-99.99,,,0.00,meteohub,2014-09-18 04:56:00,
2014-09-18 00:58:00,73.6,72.3,26.84,SE,135,2.0,-999.0,96,-99.99,,,0.00,meteohub,2014-09-18 04:58:00,
2014-09-18 01:03:00,73.6,72.3,26.84,SE,135,2.0,-999.0,96,-99.99,,,0.00,meteohub,2014-09-18 05:03:00,
2014-09-18 01:08:00,73.6,72.7,26.84,SE,135,3.0,-999.0,97,-99.99,,,0.00,meteohub,2014-09-18 05:08:00,
2014-09-18 01:13:00,73.6,72.7,26.83,SE,135,1.0,-999.0,97,-99.99,,,0.00,meteohub,2014-09-18 05:13:00,
2014-09-18 01:18:00,73.6,72.7,26.83,SE,135,2.0,-999.0,97,-99.99,,,0.00,meteohub,2014-09-18 05:18:00,
2014-09-18 01:23:00,73.4,72.5,26.83,SE,135,4.0,-999.0,97,-99.99,,,0.00,meteohub,2014-09-18 05:23:00,
2014-09-18 01:28:00,73.2,72.3,26.83,SE,135,2.0,-999.0,97,-99.99,,,0.00,meteohub,2014-09-18 05:28:00,
2014-09-18 01:33:00,73.4,72.9,26.83,SE,135,2.0,-999.0,98,-99.99,,,0.00,meteohub,2014-09-18 05:33:00,
2014-09-18 01:39:00,73.4,72.9,26.83,SE,135,2.0,-999.0,98,-99.99,,,0.00,meteohub,2014-09-18 05:39:00,
2014-09-18 01:44:00,73.2,72.7,26.84,SE,135,2.0,-999.0,98,-99.99,,,0.00,meteohub,2014-09-18 05:44:00,
2014-09-18 01:49:00,73.4,72.9,26.83,SE,135,3.0,-999.0,98,-99.99,,,0.00,meteohub,2014-09-18 05:49:00,
2014-09-18 01:54:00,73.4,72.9,26.83,SE,135,4.0,-999.0,98,-99.99,,,0.00,meteohub,2014-09-18 05:54:00,
2014-09-18 01:59:00,73.0,72.5,26.83,SE,135,3.0,-999.0,98,-99.99,,,0.00,meteohub,2014-09-18 05:59:00,
2014-09-18 02:04:00,73.0,72.5,26.83,SE,135,2.0,-999.0,98,-99.99,,,0.00,meteohub,2014-09-18 06:04:00,
2014-09-18 02:09:00,73.0,72.7,26.83,SE,135,4.0,-999.0,99,-99.99,,,0.00,meteohub,2014-09-18 06:09:00,
2014-09-18 02:14:00,72.9,72.5,26.83,SE,135,2.0,-999.0,99,-99.99,,,0.00,meteohub,2014-09-18 06:14:00,
2014-09-18 02:19:00,73.0,72.7,26.83,SE,135,2.0,-999.0,99,-99.99,,,0.00,meteohub,2014-09-18 06:19:00,
2014-09-18 02:24:00,72.9,72.5,26.83,SE,135,2.0,-999.0,99,-99.99,,,0.00,meteohub,2014-09-18 06:24:00,
2014-09-18 02:29:00,72.9,72.5,26.82,SE,135,3.0,-999.0,99,-99.99,,,0.00,meteohub,2014-09-18 06:29:00,
2014-09-18 02:34:00,72.9,72.5,26.82,SE,135,2.0,-999.0,99,-99.99,,,0.00,meteohub,2014-09-18 06:34:00,
2014-09-18 02:39:00,72.7,72.3,26.82,SE,135,2.0,-999.0,99,-99.99,,,0.00,meteohub,2014-09-18 06:39:00,
2014-09-18 02:44:00,72.7,72.3,26.82,SE,135,4.0,-999.0,99,-99.99,,,0.00,meteohub,2014-09-18 06:44:00,
2014-09-18 02:49:00,72.7,72.3,26.82,SE,135,3.0,-999.0,99,-99.99,,,0.00,meteohub,2014-09-18 06:49:00,
2014-09-18 02:54:00,72.5,72.1,26.82,SE,135,5.0,-999.0,99,-99.99,,,0.00,meteohub,2014-09-18 06:54:00,
2014-09-18 02:59:00,72.7,72.3,26.82,SE,135,2.0,-999.0,99,-99.99,,,0.00,meteohub,2014-09-18 06:59:00,
2014-09-18 03:04:00,72.7,72.3,26.82,SE,135,4.0,-999.0,99,-99.99,,,0.00,meteohub,2014-09-18 07:04:00,
2014-09-18 03:09:00,72.3,72.0,26.82,SE,135,2.0,-999.0,99,-99.99,,,0.00,meteohub,2014-09-18 07:09:00,
2014-09-18 03:14:00,72.5,72.1,26.82,SE,135,2.0,-999.0,99,-99.99,,,0.00,meteohub,2014-09-18 07:14:00,
2014-09-18 03:19:00,72.7,72.3,26.81,SE,135,2.0,-999.0,99,-99.99,,,0.00,meteohub,2014-09-18 07:19:00,
2014-09-18 03:24:00,72.7,72.3,26.81,SE,135,3.0,-999.0,99,-99.99,,,0.00,meteohub,2014-09-18 07:24:00,
2014-09-18 03:29:00,72.7,72.3,26.80,SE,135,3.0,-999.0,99,-99.99,,,0.00,meteohub,2014-09-18 07:29:00,
2014-09-18 03:34:00,72.9,72.5,26.80,SE,135,4.0,-999.0,99,-99.99,,,0.00,meteohub,2014-09-18 07:34:00,
2014-09-18 03:39:00,72.9,72.5,26.81,SE,135,4.0,-999.0,99,-99.99,,,0.00,meteohub,2014-09-18 07:39:00,
2014-09-18 03:44:00,72.9,72.5,26.81,SE,135,4.0,-999.0,99,-99.99,,,0.00,meteohub,2014-09-18 07:44:00,
2014-09-18 03:48:00,72.7,72.3,26.81,SE,135,3.0,-999.0,99,-99.99,,,0.00,meteohub,2014-09-18 07:48:00,
2014-09-18 03:53:00,72.7,72.3,26.81,SE,135,4.0,-999.0,99,-99.99,,,0.00,meteohub,2014-09-18 07:53:00,
2014-09-18 03:58:00,72.9,72.5,26.81,SE,135,2.0,-999.0,99,-99.99,,,0.00,meteohub,2014-09-18 07:58:00,
2014-09-18 04:03:00,72.9,72.5,26.81,SE,135,2.0,-999.0,99,-99.99,,,0.00,meteohub,2014-09-18 08:03:00,
2014-09-18 04:08:00,73.0,72.7,26.80,SE,135,2.0,-999.0,99,-99.99,,,0.00,meteohub,2014-09-18 08:08:00,
2014-09-18 04:13:00,73.0,72.7,26.81,SE,135,2.0,-999.0,99,-99.99,,,0.00,meteohub,2014-09-18 08:13:00,
2014-09-18 04:18:00,72.9,72.5,26.81,SE,135,2.0,-999.0,99,-99.99,,,0.00,meteohub,2014-09-18 08:18:00,
2014-09-18 04:23:00,73.0,72.7,26.81,SE,135,2.0,-999.0,99,-99.99,,,0.00,meteohub,2014-09-18 08:23:00,
2014-09-18 04:28:00,72.9,72.5,26.81,SE,135,3.0,-999.0,99,-99.99,,,0.00,meteohub,2014-09-18 08:28:00,
2014-09-18 04:33:00,72.9,72.5,26.81,SE,135,2.0,-999.0,99,-99.99,,,0.00,meteohub,2014-09-18 08:33:00,
2014-09-18 04:38:00,72.9,72.5,26.81,SE,135,2.0,-999.0,99,-99.99,,,0.00,meteohub,2014-09-18 08:38:00,
2014-09-18 04:43:00,72.7,72.3,26.81,SE,135,3.0,-999.0,99,-99.99,,,0.00,meteohub,2014-09-18 08:43:00,
2014-09-18 04:48:00,72.9,72.5,26.81,SE,135,2.0,-999.0,99,-99.99,,,0.00,meteohub,2014-09-18 08:48:00,
2014-09-18 04:53:00,73.0,72.7,26.82,SE,135,2.0,-999.0,99,-99.99,,,0.00,meteohub,2014-09-18 08:53:00,
2014-09-18 04:58:00,73.2,72.9,26.82,SE,135,4.0,-999.0,99,-99.99,,,0.00,meteohub,2014-09-18 08:58:00,
2014-09-18 05:03:00,72.9,72.5,26.82,SE,135,2.0,-999.0,99,-99.99,,,0.00,meteohub,2014-09-18 09:03:00,
2014-09-18 05:08:00,72.9,72.5,26.82,SE,135,2.0,-999.0,99,-99.99,,,0.00,meteohub,2014-09-18 09:08:00,
2014-09-18 05:13:00,73.0,72.7,26.81,SE,135,2.0,-999.0,99,-99.99,,,0.00,meteohub,2014-09-18 09:13:00,
2014-09-18 05:19:00,73.0,72.7,26.81,SE,135,2.0,-999.0,99,-99.99,,,0.00,meteohub,2014-09-18 09:19:00,
2014-09-18 05:24:00,73.0,72.7,26.81,SE,135,3.0,-999.0,99,-99.99,,,0.00,meteohub,2014-09-18 09:24:00,
2014-09-18 05:29:00,72.9,72.5,26.82,SE,135,2.0,-999.0,99,-99.99,,,0.00,meteohub,2014-09-18 09:29:00,
2014-09-18 05:34:00,73.0,72.7,26.82,SE,135,2.0,-999.0,99,-99.99,,,0.00,meteohub,2014-09-18 09:34:00,
2014-09-18 05:39:00,73.2,72.9,26.82,SE,135,4.0,-999.0,99,-99.99,,,0.00,meteohub,2014-09-18 09:39:00,
2014-09-18 05:44:00,72.9,72.5,26.82,SE,135,3.0,-999.0,99,-99.99,,,0.00,meteohub,2014-09-18 09:44:00,
2014-09-18 05:49:00,72.7,72.3,26.82,SE,135,2.0,-999.0,99,-99.99,,,0.00,meteohub,2014-09-18 09:49:00,
2014-09-18 05:54:00,72.9,72.5,26.82,SE,135,2.0,-999.0,99,-99.99,,,0.00,meteohub,2014-09-18 09:54:00,
2014-09-18 05:59:00,72.7,72.3,26.82,SE,135,2.0,-999.0,99,-99.99,,,0.00,meteohub,2014-09-18 09:59:00,
2014-09-18 06:04:00,72.9,72.5,26.82,SE,135,2.0,-999.0,99,-99.99,,,0.00,meteohub,2014-09-18 10:04:00,
2014-09-18 06:09:00,72.7,72.3,26.83,SE,135,2.0,-999.0,99,-99.99,,,0.00,meteohub,2014-09-18 10:09:00,
2014-09-18 06:14:00,72.7,72.3,26.82,SE,135,2.0,-999.0,99,-99.99,,,0.00,meteohub,2014-09-18 10:14:00,
2014-09-18 06:19:00,72.9,72.5,26.83,SE,135,2.0,-999.0,99,-99.99,,,0.00,meteohub,2014-09-18 10:19:00,
2014-09-18 06:24:00,72.9,72.5,26.83,SE,135,0.0,-999.0,99,-99.99,,,0.00,meteohub,2014-09-18 10:24:00,
2014-09-18 06:25:00,72.7,72.3,26.83,SE,135,2.0,-999.0,99,-99.99,,,0.00,meteohub,2014-09-18 10:25:00,
2014-09-18 06:30:00,72.9,72.5,26.83,SE,135,3.0,-999.0,99,-99.99,,,0.00,meteohub,2014-09-18 10:30:00,
2014-09-18 06:35:00,73.0,72.7,26.84,SE,135,2.0,-999.0,99,-99.99,,,0.00,meteohub,2014-09-18 10:35:00,
2014-09-18 06:40:00,73.0,72.7,26.84,SE,135,2.0,-999.0,99,-99.99,,,0.00,meteohub,2014-09-18 10:40:00,
2014-09-18 06:45:00,72.9,72.5,26.83,SE,135,3.0,-999.0,99,-99.99,,,0.00,meteohub,2014-09-18 10:45:00,
2014-09-18 06:50:00,73.0,72.7,26.84,SE,135,3.0,-999.0,99,-99.99,,,0.00,meteohub,2014-09-18 10:50:00,
2014-09-18 06:53:00,73.0,72.7,26.84,SE,135,2.0,-999.0,99,-99.99,,,0.00,meteohub,2014-09-18 10:53:00,
2014-09-18 06:58:00,73.0,72.7,26.84,SE,135,1.0,-999.0,99,-99.99,,,0.00,meteohub,2014-09-18 10:58:00,
2014-09-18 07:03:00,73.2,72.9,26.84,SE,135,1.0,-999.0,99,-99.99,,,0.00,meteohub,2014-09-18 11:03:00,
2014-09-18 07:08:00,73.2,72.9,26.84,SE,135,2.0,-999.0,99,-99.99,,,0.00,meteohub,2014-09-18 11:08:00,
2014-09-18 07:13:00,72.9,72.5,26.84,SE,135,3.0,-999.0,99,-99.99,,,0.00,meteohub,2014-09-18 11:13:00,
2014-09-18 07:18:00,73.0,72.7,26.84,SE,135,3.0,-999.0,99,-99.99,,,0.00,meteohub,2014-09-18 11:18:00,
2014-09-18 07:23:00,73.0,72.7,26.84,SE,135,0.0,-999.0,99,-99.99,,,0.00,meteohub,2014-09-18 11:23:00,
2014-09-18 07:28:00,73.2,72.9,26.84,SE,135,2.0,-999.0,99,-99.99,,,0.00,meteohub,2014-09-18 11:28:00,
2014-09-18 07:33:00,73.2,72.9,26.84,SE,135,3.0,-999.0,99,-99.99,,,0.00,meteohub,2014-09-18 11:33:00,
2014-09-18 07:38:00,73.0,72.7,26.85,SE,135,1.0,-999.0,99,-99.99,,,0.00,meteohub,2014-09-18 11:38:00,
2014-09-18 07:43:00,73.0,72.7,26.85,SE,135,3.0,-999.0,99,-99.99,,,0.00,meteohub,2014-09-18 11:43:00,
2014-09-18 07:48:00,73.2,72.9,26.85,SE,135,2.0,-999.0,99,-99.99,,,0.00,meteohub,2014-09-18 11:48:00,
2014-09-18 07:53:00,73.4,73.0,26.85,SE,135,2.0,-999.0,99,-99.99,,,0.00,meteohub,2014-09-18 11:53:00,
2014-09-18 07:58:00,73.4,73.0,26.85,SE,135,1.0,-999.0,99,-99.99,,,0.00,meteohub,2014-09-18 11:58:00,
2014-09-18 08:03:00,73.9,73.6,26.85,SE,135,1.0,-999.0,99,-99.99,,,0.00,meteohub,2014-09-18 12:03:00,
2014-09-18 08:08:00,73.4,73.0,26.85,SE,135,2.0,-999.0,99,-99.99,,,0.00,meteohub,2014-09-18 12:08:00,
2014-09-18 08:13:00,73.6,73.2,26.85,SE,135,4.0,-999.0,99,-99.99,,,0.00,meteohub,2014-09-18 12:13:00,
2014-09-18 08:18:00,73.4,73.0,26.86,SE,135,2.0,-999.0,99,-99.99,,,0.00,meteohub,2014-09-18 12:18:00,
2014-09-18 08:23:00,73.8,73.4,26.86,SE,135,0.0,-999.0,99,-99.99,,,0.00,meteohub,2014-09-18 12:23:00,
2014-09-18 08:28:00,73.9,73.6,26.86,SE,135,3.0,-999.0,99,-99.99,,,0.00,meteohub,2014-09-18 12:28:00,
2014-09-18 08:33:00,73.9,73.6,26.86,SE,135,2.0,-999.0,99,-99.99,,,0.00,meteohub,2014-09-18 12:33:00,
2014-09-18 08:38:00,74.5,74.1,26.85,SE,135,2.0,-999.0,99,-99.99,,,0.00,meteohub,2014-09-18 12:38:00,
2014-09-18 08:43:00,74.7,74.3,26.85,SE,135,0.0,-999.0,99,-99.99,,,0.00,meteohub,2014-09-18 12:43:00,
2014-09-18 08:48:00,74.8,74.5,26.85,SE,135,2.0,-999.0,99,-99.99,,,0.00,meteohub,2014-09-18 12:48:00,
2014-09-18 08:53:00,75.4,75.0,26.85,SE,135,2.0,-999.0,99,-99.99,,,0.00,meteohub,2014-09-18 12:53:00,
2014-09-18 08:58:00,75.6,75.2,26.85,SE,135,3.0,-999.0,99,-99.99,,,0.00,meteohub,2014-09-18 12:58:00,
2014-09-18 09:03:00,75.7,75.4,26.86,SE,135,2.0,-999.0,99,-99.99,,,0.00,meteohub,2014-09-18 13:03:00,
2014-09-18 09:08:00,76.3,75.9,26.86,SE,135,2.0,-999.0,99,-99.99,,,0.00,meteohub,2014-09-18 13:08:00,
2014-09-18 09:13:00,76.6,76.3,26.86,SE,135,3.0,-999.0,99,-99.99,,,0.00,meteohub,2014-09-18 13:13:00,
2014-09-18 09:15:00,77.2,76.8,26.86,SE,135,2.0,-999.0,99,-99.99,,,0.00,meteohub,2014-09-18 13:15:00,
2014-09-18 09:20:00,78.1,77.7,26.86,SE,135,4.0,-999.0,99,-99.99,,,0.00,meteohub,2014-09-18 13:20:00,
2014-09-18 09:25:00,78.4,78.1,26.86,SE,135,3.0,-999.0,99,-99.99,,,0.00,meteohub,2014-09-18 13:25:00,
2014-09-18 09:30:00,79.7,79.3,26.86,SE,135,4.0,-999.0,99,-99.99,,,0.00,meteohub,2014-09-18 13:30:00,
2014-09-18 09:35:00,81.9,81.5,26.86,SE,135,4.0,-999.0,99,-99.99,,,0.00,meteohub,2014-09-18 13:35:00,
2014-09-18 09:40:00,81.5,79.0,26.87,SE,135,4.0,-999.0,92,-99.99,,,0.00,meteohub,2014-09-18 13:40:00,
2014-09-18 09:45:00,82.0,79.5,26.87,SE,135,3.0,-999.0,92,-99.99,,,0.00,meteohub,2014-09-18 13:45:00,
2014-09-18 09:50:00,82.9,78.3,26.86,SE,135,4.0,-999.0,86,-99.99,,,0.00,meteohub,2014-09-18 13:50:00,
2014-09-18 09:55:00,84.0,79.0,26.87,SE,135,3.0,-999.0,85,-99.99,,,0.00,meteohub,2014-09-18 13:55:00,
2014-09-18 10:00:00,85.1,79.0,26.87,SE,135,2.0,-999.0,82,-99.99,,,0.00,meteohub,2014-09-18 14:00:00,
2014-09-18 10:05:00,86.4,78.6,26.86,SE,135,3.0,-999.0,78,-99.99,,,0.00,meteohub,2014-09-18 14:05:00,
2014-09-18 10:10:00,86.7,77.0,26.87,SE,135,2.0,-999.0,73,-99.99,,,0.00,meteohub,2014-09-18 14:10:00,
2014-09-18 10:15:00,86.5,75.9,26.87,SE,135,2.0,-999.0,71,-99.99,,,0.00,meteohub,2014-09-18 14:15:00,
2014-09-18 10:20:00,87.8,77.7,26.87,SE,135,2.0,-999.0,72,-99.99,,,0.00,meteohub,2014-09-18 14:20:00,
2014-09-18 10:25:00,88.3,76.5,26.87,SE,135,2.0,-999.0,68,-99.99,,,0.00,meteohub,2014-09-18 14:25:00,
2014-09-18 10:30:00,88.7,76.8,26.87,SE,135,2.0,-999.0,68,-99.99,,,0.00,meteohub,2014-09-18 14:30:00,
2014-09-18 10:35:00,89.6,75.4,26.87,SE,135,4.0,-999.0,63,-99.99,,,0.00,meteohub,2014-09-18 14:35:00,
2014-09-18 10:40:00,89.6,75.4,26.87,SE,135,2.0,-999.0,63,-99.99,,,0.00,meteohub,2014-09-18 14:40:00,
2014-09-18 10:45:00,90.5,75.7,26.87,SE,135,2.0,-999.0,62,-99.99,,,0.00,meteohub,2014-09-18 14:45:00,
2014-09-18 10:50:00,91.0,74.7,26.87,SE,135,3.0,-999.0,59,-99.99,,,0.00,meteohub,2014-09-18 14:50:00,
2014-09-18 10:55:00,91.4,74.5,26.87,SE,135,2.0,-999.0,58,-99.99,,,0.00,meteohub,2014-09-18 14:55:00,
2014-09-18 11:00:00,92.3,75.4,26.87,SE,135,2.0,-999.0,58,-99.99,,,0.00,meteohub,2014-09-18 15:00:00,
2014-09-18 11:05:00,92.5,73.4,26.87,SE,135,3.0,-999.0,54,-99.99,,,0.00,meteohub,2014-09-18 15:05:00,
2014-09-18 11:10:00,92.1,73.6,26.87,SE,135,3.0,-999.0,55,-99.99,,,0.00,meteohub,2014-09-18 15:10:00,
2014-09-18 11:15:00,91.8,72.1,26.87,SE,135,4.0,-999.0,53,-99.99,,,0.00,meteohub,2014-09-18 15:15:00,
2014-09-18 11:20:00,91.6,72.5,26.87,SE,135,4.0,-999.0,54,-99.99,,,0.00,meteohub,2014-09-18 15:20:00,
2014-09-18 11:25:00,91.2,72.3,26.86,SE,135,3.0,-999.0,54,-99.99,,,0.00,meteohub,2014-09-18 15:25:00,
2014-09-18 11:30:00,92.1,72.5,26.86,SE,135,3.0,-999.0,53,-99.99,,,0.00,meteohub,2014-09-18 15:30:00,
2014-09-18 11:35:00,92.1,70.9,26.86,SE,135,7.0,-999.0,50,-99.99,,,0.00,meteohub,2014-09-18 15:35:00,
2014-09-18 11:40:00,91.9,71.8,26.86,SE,135,2.0,-999.0,52,-99.99,,,0.00,meteohub,2014-09-18 15:40:00,
2014-09-18 11:45:00,92.3,71.6,26.86,SE,135,4.0,-999.0,51,-99.99,,,0.00,meteohub,2014-09-18 15:45:00,
2014-09-18 11:48:00,93.0,72.1,26.86,SE,135,2.0,-999.0,51,-99.99,,,0.00,meteohub,2014-09-18 15:48:00,
2014-09-18 11:53:00,92.3,71.6,26.86,SE,135,4.0,-999.0,51,-99.99,,,0.00,meteohub,2014-09-18 15:53:00,
2014-09-18 11:58:00,92.1,70.2,26.86,SE,135,4.0,-999.0,49,-99.99,,,0.00,meteohub,2014-09-18 15:58:00,
2014-09-18 12:03:00,91.6,70.9,26.85,SE,135,2.0,-999.0,51,-99.99,,,0.00,meteohub,2014-09-18 16:03:00,
2014-09-18 12:08:00,93.0,70.3,26.85,SE,135,2.0,-999.0,48,-99.99,,,0.00,meteohub,2014-09-18 16:08:00,
2014-09-18 12:13:00,93.4,71.4,26.86,SE,135,2.0,-999.0,49,-99.99,,,0.00,meteohub,2014-09-18 16:13:00,
2014-09-18 12:18:00,93.7,70.5,26.86,SE,135,2.0,-999.0,47,-99.99,,,0.00,meteohub,2014-09-18 16:18:00,
2014-09-18 12:23:00,93.4,70.2,26.85,SE,135,3.0,-999.0,47,-99.99,,,0.00,meteohub,2014-09-18 16:23:00,
2014-09-18 12:28:00,93.2,70.5,26.85,SE,135,2.0,-999.0,48,-99.99,,,0.00,meteohub,2014-09-18 16:28:00,
2014-09-18 12:33:00,92.8,70.3,26.85,SE,135,2.0,-999.0,48,-99.99,,,0.00,meteohub,2014-09-18 16:33:00,
2014-09-18 12:38:00,92.5,70.0,26.85,SE,135,4.0,-999.0,48,-99.99,,,0.00,meteohub,2014-09-18 16:38:00,
2014-09-18 12:43:00,91.9,70.0,26.85,SE,135,4.0,-999.0,49,-99.99,,,0.00,meteohub,2014-09-18 16:43:00,
2014-09-18 12:48:00,92.7,71.2,26.85,SE,135,3.0,-999.0,50,-99.99,,,0.00,meteohub,2014-09-18 16:48:00,
2014-09-18 12:53:00,93.2,70.0,26.84,SE,135,5.0,-999.0,47,-99.99,,,0.00,meteohub,2014-09-18 16:53:00,
2014-09-18 12:58:00,93.2,70.0,26.84,SE,135,3.0,-999.0,47,-99.99,,,0.00,meteohub,2014-09-18 16:58:00,
2014-09-18 13:03:00,94.1,70.7,26.85,SE,135,4.0,-999.0,47,-99.99,,,0.00,meteohub,2014-09-18 17:03:00,
2014-09-18 13:08:00,93.7,71.1,26.84,SE,135,4.0,-999.0,48,-99.99,,,0.00,meteohub,2014-09-18 17:08:00,
2014-09-18 13:13:00,93.9,70.7,26.85,SE,135,3.0,-999.0,47,-99.99,,,0.00,meteohub,2014-09-18 17:13:00,
2014-09-18 13:18:00,94.1,69.4,26.84,SE,135,4.0,-999.0,45,-99.99,,,0.00,meteohub,2014-09-18 17:18:00,
2014-09-18 13:23:00,93.7,69.8,26.84,SE,135,4.0,-999.0,46,-99.99,,,0.00,meteohub,2014-09-18 17:23:00,
2014-09-18 13:28:00,94.5,69.8,26.84,SE,135,4.0,-999.0,45,-99.99,,,0.00,meteohub,2014-09-18 17:28:00,
2014-09-18 13:33:00,95.0,70.9,26.84,SE,135,4.0,-999.0,46,-99.99,,,0.00,meteohub,2014-09-18 17:33:00,
2014-09-18 13:38:00,94.6,70.7,26.83,SE,135,3.0,-999.0,46,-99.99,,,0.00,meteohub,2014-09-18 17:38:00,
2014-09-18 13:39:00,94.6,70.0,26.83,SE,135,4.0,-999.0,45,-99.99,,,0.00,meteohub,2014-09-18 17:39:00,
2014-09-18 13:45:00,94.6,70.0,26.84,SE,135,8.0,-999.0,45,-99.99,,,0.00,meteohub,2014-09-18 17:45:00,
2014-09-18 13:50:00,94.6,70.7,26.84,SE,135,4.0,-999.0,46,-99.99,,,0.00,meteohub,2014-09-18 17:50:00,
2014-09-18 13:55:00,94.6,70.0,26.83,SE,135,8.0,-999.0,45,-99.99,,,0.00,meteohub,2014-09-18 17:55:00,
2014-09-18 14:00:00,94.1,70.2,26.83,SE,135,3.0,-999.0,46,-99.99,,,0.00,meteohub,2014-09-18 18:00:00,
2014-09-18 14:05:00,94.1,70.2,26.83,SE,135,4.0,-999.0,46,-99.99,,,0.00,meteohub,2014-09-18 18:05:00,
2014-09-18 14:10:00,93.6,70.9,26.83,SE,135,5.0,-999.0,48,-99.99,,,0.00,meteohub,2014-09-18 18:10:00,
2014-09-18 14:15:00,93.0,71.1,26.82,SE,135,2.0,-999.0,49,-99.99,,,0.00,meteohub,2014-09-18 18:15:00,
2014-09-18 14:20:00,93.0,71.1,26.82,SE,135,4.0,-999.0,49,-99.99,,,0.00,meteohub,2014-09-18 18:20:00,
2014-09-18 14:25:00,92.3,70.9,26.82,SE,135,10.0,-999.0,50,-99.99,,,0.00,meteohub,2014-09-18 18:25:00,
2014-09-18 14:27:00,91.8,71.1,26.82,SE,135,4.0,-999.0,51,-99.99,,,0.00,meteohub,2014-09-18 18:27:00,
2014-09-18 14:32:00,92.1,70.2,26.82,SE,135,8.0,-999.0,49,-99.99,,,0.00,meteohub,2014-09-18 18:32:00,
2014-09-18 14:37:00,91.2,70.5,26.82,SE,135,4.0,-999.0,51,-99.99,,,0.00,meteohub,2014-09-18 18:37:00,
2014-09-18 14:42:00,91.8,70.5,26.82,SE,135,8.0,-999.0,50,-99.99,,,0.00,meteohub,2014-09-18 18:42:00,
2014-09-18 14:47:00,92.7,70.7,26.82,SE,135,8.0,-999.0,49,-99.99,,,0.00,meteohub,2014-09-18 18:47:00,
2014-09-18 14:52:00,91.4,70.2,26.82,SE,135,7.0,-999.0,50,-99.99,,,0.00,meteohub,2014-09-18 18:52:00,
2014-09-18 14:57:00,91.9,71.8,26.82,SE,135,3.0,-999.0,52,-99.99,,,0.00,meteohub,2014-09-18 18:57:00,
2014-09-18 15:02:00,91.4,70.7,26.81,SE,135,10.0,-999.0,51,-99.99,,,0.00,meteohub,2014-09-18 19:02:00,
2014-09-18 15:07:00,91.9,70.7,26.81,SE,135,2.0,-999.0,50,-99.99,,,0.00,meteohub,2014-09-18 19:07:00,
2014-09-18 15:12:00,93.6,70.9,26.81,SE,135,2.0,-999.0,48,-99.99,,,0.00,meteohub,2014-09-18 19:12:00,
2014-09-18 15:17:00,94.6,70.7,26.80,SE,135,7.0,-999.0,46,-99.99,,,0.00,meteohub,2014-09-18 19:17:00,
2014-09-18 15:22:00,94.5,71.1,26.80,SE,135,4.0,-999.0,47,-99.99,,,0.00,meteohub,2014-09-18 19:22:00,
2014-09-18 15:27:00,94.3,71.6,26.80,SE,135,3.0,-999.0,48,-99.99,,,0.00,meteohub,2014-09-18 19:27:00,
2014-09-18 15:32:00,93.6,71.6,26.80,SE,135,3.0,-999.0,49,-99.99,,,0.00,meteohub,2014-09-18 19:32:00,
2014-09-18 15:37:00,93.2,71.8,26.80,SE,135,3.0,-999.0,50,-99.99,,,0.00,meteohub,2014-09-18 19:37:00,
2014-09-18 15:42:00,93.0,72.1,26.80,SE,135,2.0,-999.0,51,-99.99,,,0.00,meteohub,2014-09-18 19:42:00,
2014-09-18 15:47:00,93.7,72.9,26.80,SE,135,2.0,-999.0,51,-99.99,,,0.00,meteohub,2014-09-18 19:47:00,
2014-09-18 15:52:00,93.7,73.4,26.80,SE,135,5.0,-999.0,52,-99.99,,,0.00,meteohub,2014-09-18 19:52:00,
2014-09-18 15:57:00,93.9,73.6,26.80,SE,135,4.0,-999.0,52,-99.99,,,0.00,meteohub,2014-09-18 19:57:00,
2014-09-18 16:02:00,93.2,72.9,26.80,SE,135,4.0,-999.0,52,-99.99,,,0.00,meteohub,2014-09-18 20:02:00,